sensor_id;sensor_type;location;lat;lon;timestamp;P1;durP1;ratioP1;P2;durP2;ratioP2
56427;SDS011;42331;53.578;9.760;2023-03-17T00:00:00;2.88;;;0.98;;
56427;SDS011;42331;53.578;9.760;2023-03-17T00:02:30;4.72;;;1.58;;
56427;SDS011;42331;53.578;9.760;2023-03-17T00:05:02;3.60;;;1.10;;
56427;SDS011;42331;53.578;9.760;2023-03-17T00:07:43;4.57;;;0.97;;
56427;SDS011;42331;53.578;9.760;2023-03-17T00:10:16;3.97;;;0.90;;
56427;SDS011;42331;53.578;9.760;2023-03-17T00:12:52;3.13;;;1.05;;
56427;SDS011;42331;53.578;9.760;2023-03-17T00:15:25;3.92;;;1.50;;
56427;SDS011;42331;53.578;9.760;2023-03-17T00:17:56;5.05;;;1.20;;
56427;SDS011;42331;53.578;9.760;2023-03-17T00:20:28;5.20;;;1.30;;
56427;SDS011;42331;53.578;9.760;2023-03-17T00:23:01;3.42;;;0.90;;
56427;SDS011;42331;53.578;9.760;2023-03-17T00:25:33;4.00;;;1.00;;
56427;SDS011;42331;53.578;9.760;2023-03-17T00:28:15;2.80;;;1.30;;
56427;SDS011;42331;53.578;9.760;2023-03-17T00:30:57;6.30;;;1.13;;
56427;SDS011;42331;53.578;9.760;2023-03-17T00:33:29;3.67;;;1.00;;
56427;SDS011;42331;53.578;9.760;2023-03-17T00:36:03;3.80;;;0.90;;
56427;SDS011;42331;53.578;9.760;2023-03-17T00:41:07;2.60;;;1.08;;
56427;SDS011;42331;53.578;9.760;2023-03-17T00:43:39;2.67;;;1.05;;
56427;SDS011;42331;53.578;9.760;2023-03-17T00:48:43;4.18;;;1.25;;
56427;SDS011;42331;53.578;9.760;2023-03-17T00:53:46;3.78;;;1.25;;
56427;SDS011;42331;53.578;9.760;2023-03-17T00:56:18;2.88;;;1.20;;
56427;SDS011;42331;53.578;9.760;2023-03-17T00:58:50;2.67;;;1.10;;
56427;SDS011;42331;53.578;9.760;2023-03-17T01:01:21;3.22;;;1.00;;
56427;SDS011;42331;53.578;9.760;2023-03-17T01:03:51;2.33;;;1.00;;
56427;SDS011;42331;53.578;9.760;2023-03-17T01:06:22;4.55;;;1.30;;
56427;SDS011;42331;53.578;9.760;2023-03-17T01:08:53;6.13;;;1.17;;
56427;SDS011;42331;53.578;9.760;2023-03-17T01:11:24;3.03;;;1.38;;
56427;SDS011;42331;53.578;9.760;2023-03-17T01:13:55;3.05;;;1.15;;
56427;SDS011;42331;53.578;9.760;2023-03-17T01:16:26;2.78;;;1.08;;
56427;SDS011;42331;53.578;9.760;2023-03-17T01:18:57;6.15;;;1.05;;
56427;SDS011;42331;53.578;9.760;2023-03-17T01:21:29;3.47;;;1.13;;
56427;SDS011;42331;53.578;9.760;2023-03-17T01:24:00;3.30;;;1.13;;
56427;SDS011;42331;53.578;9.760;2023-03-17T01:26:31;2.90;;;1.20;;
56427;SDS011;42331;53.578;9.760;2023-03-17T01:29:03;3.35;;;1.33;;
56427;SDS011;42331;53.578;9.760;2023-03-17T01:31:35;2.95;;;1.00;;
56427;SDS011;42331;53.578;9.760;2023-03-17T01:34:06;4.20;;;1.17;;
56427;SDS011;42331;53.578;9.760;2023-03-17T01:36:37;2.28;;;0.90;;
56427;SDS011;42331;53.578;9.760;2023-03-17T01:39:07;3.10;;;1.00;;
56427;SDS011;42331;53.578;9.760;2023-03-17T01:41:38;3.80;;;1.20;;
56427;SDS011;42331;53.578;9.760;2023-03-17T01:44:13;3.95;;;1.02;;
56427;SDS011;42331;53.578;9.760;2023-03-17T01:46:46;3.17;;;1.20;;
56427;SDS011;42331;53.578;9.760;2023-03-17T01:49:24;3.67;;;1.13;;
56427;SDS011;42331;53.578;9.760;2023-03-17T01:52:13;4.82;;;1.20;;
56427;SDS011;42331;53.578;9.760;2023-03-17T01:54:58;5.20;;;1.13;;
56427;SDS011;42331;53.578;9.760;2023-03-17T01:57:34;4.85;;;1.25;;
56427;SDS011;42331;53.578;9.760;2023-03-17T02:00:09;4.03;;;1.35;;
56427;SDS011;42331;53.578;9.760;2023-03-17T02:02:48;3.05;;;1.38;;
56427;SDS011;42331;53.578;9.760;2023-03-17T02:05:25;3.60;;;1.30;;
56427;SDS011;42331;53.578;9.760;2023-03-17T02:07:58;3.47;;;1.05;;
56427;SDS011;42331;53.578;9.760;2023-03-17T02:10:29;2.90;;;1.10;;
56427;SDS011;42331;53.578;9.760;2023-03-17T02:13:01;3.83;;;1.10;;
56427;SDS011;42331;53.578;9.760;2023-03-17T02:15:48;3.30;;;1.10;;
56427;SDS011;42331;53.578;9.760;2023-03-17T02:18:20;2.85;;;1.13;;
56427;SDS011;42331;53.578;9.760;2023-03-17T02:23:58;3.72;;;1.25;;
56427;SDS011;42331;53.578;9.760;2023-03-17T02:26:32;4.03;;;1.20;;
56427;SDS011;42331;53.578;9.760;2023-03-17T02:29:04;4.10;;;1.42;;
56427;SDS011;42331;53.578;9.760;2023-03-17T02:31:35;2.58;;;1.13;;
56427;SDS011;42331;53.578;9.760;2023-03-17T02:34:06;3.72;;;1.30;;
56427;SDS011;42331;53.578;9.760;2023-03-17T02:36:36;3.33;;;1.20;;
56427;SDS011;42331;53.578;9.760;2023-03-17T02:39:07;3.65;;;1.58;;
56427;SDS011;42331;53.578;9.760;2023-03-17T02:41:38;4.25;;;1.20;;
56427;SDS011;42331;53.578;9.760;2023-03-17T02:44:09;4.72;;;1.33;;
56427;SDS011;42331;53.578;9.760;2023-03-17T02:46:40;4.28;;;1.10;;
56427;SDS011;42331;53.578;9.760;2023-03-17T02:49:11;2.67;;;1.40;;
56427;SDS011;42331;53.578;9.760;2023-03-17T02:51:43;5.25;;;1.45;;
56427;SDS011;42331;53.578;9.760;2023-03-17T02:54:14;4.18;;;1.38;;
56427;SDS011;42331;53.578;9.760;2023-03-17T02:56:45;7.68;;;1.30;;
56427;SDS011;42331;53.578;9.760;2023-03-17T02:59:15;2.92;;;1.20;;
56427;SDS011;42331;53.578;9.760;2023-03-17T03:01:46;4.95;;;1.63;;
56427;SDS011;42331;53.578;9.760;2023-03-17T03:04:18;2.65;;;1.25;;
56427;SDS011;42331;53.578;9.760;2023-03-17T03:06:49;3.13;;;1.33;;
56427;SDS011;42331;53.578;9.760;2023-03-17T03:09:20;3.63;;;1.40;;
56427;SDS011;42331;53.578;9.760;2023-03-17T03:11:51;2.67;;;1.27;;
56427;SDS011;42331;53.578;9.760;2023-03-17T03:14:22;2.83;;;1.38;;
56427;SDS011;42331;53.578;9.760;2023-03-17T03:16:53;3.40;;;1.20;;
56427;SDS011;42331;53.578;9.760;2023-03-17T03:19:23;3.63;;;1.27;;
56427;SDS011;42331;53.578;9.760;2023-03-17T03:21:54;3.40;;;0.90;;
56427;SDS011;42331;53.578;9.760;2023-03-17T03:24:25;2.97;;;1.42;;
56427;SDS011;42331;53.578;9.760;2023-03-17T03:26:56;3.00;;;1.30;;
56427;SDS011;42331;53.578;9.760;2023-03-17T03:29:27;3.58;;;1.52;;
56427;SDS011;42331;53.578;9.760;2023-03-17T03:31:58;3.58;;;1.60;;
56427;SDS011;42331;53.578;9.760;2023-03-17T03:34:29;2.88;;;1.30;;
56427;SDS011;42331;53.578;9.760;2023-03-17T03:37:00;1.80;;;0.90;;
56427;SDS011;42331;53.578;9.760;2023-03-17T03:39:31;3.25;;;1.33;;
56427;SDS011;42331;53.578;9.760;2023-03-17T03:42:02;5.90;;;1.75;;
56427;SDS011;42331;53.578;9.760;2023-03-17T03:44:33;2.85;;;1.30;;
56427;SDS011;42331;53.578;9.760;2023-03-17T03:47:03;3.95;;;1.27;;
56427;SDS011;42331;53.578;9.760;2023-03-17T03:49:34;4.72;;;1.65;;
56427;SDS011;42331;53.578;9.760;2023-03-17T03:52:05;3.25;;;1.45;;
56427;SDS011;42331;53.578;9.760;2023-03-17T03:54:36;3.05;;;1.38;;
56427;SDS011;42331;53.578;9.760;2023-03-17T03:57:07;6.85;;;1.85;;
56427;SDS011;42331;53.578;9.760;2023-03-17T03:59:38;2.30;;;1.02;;
56427;SDS011;42331;53.578;9.760;2023-03-17T04:02:08;6.15;;;2.03;;
56427;SDS011;42331;53.578;9.760;2023-03-17T04:04:39;5.63;;;1.83;;
56427;SDS011;42331;53.578;9.760;2023-03-17T04:07:11;4.15;;;1.75;;
56427;SDS011;42331;53.578;9.760;2023-03-17T04:09:42;4.43;;;1.77;;
56427;SDS011;42331;53.578;9.760;2023-03-17T04:12:13;2.83;;;1.38;;
56427;SDS011;42331;53.578;9.760;2023-03-17T04:14:44;3.70;;;1.83;;
56427;SDS011;42331;53.578;9.760;2023-03-17T04:17:15;4.38;;;1.83;;
56427;SDS011;42331;53.578;9.760;2023-03-17T04:19:46;4.68;;;1.83;;
56427;SDS011;42331;53.578;9.760;2023-03-17T04:22:16;4.35;;;1.85;;
56427;SDS011;42331;53.578;9.760;2023-03-17T04:24:47;3.53;;;1.40;;
56427;SDS011;42331;53.578;9.760;2023-03-17T04:27:18;5.05;;;1.60;;
56427;SDS011;42331;53.578;9.760;2023-03-17T04:29:49;4.95;;;2.00;;
56427;SDS011;42331;53.578;9.760;2023-03-17T04:32:19;3.23;;;1.53;;
56427;SDS011;42331;53.578;9.760;2023-03-17T04:34:50;3.28;;;1.63;;
56427;SDS011;42331;53.578;9.760;2023-03-17T04:37:22;6.15;;;2.10;;
56427;SDS011;42331;53.578;9.760;2023-03-17T04:39:53;4.38;;;2.00;;
56427;SDS011;42331;53.578;9.760;2023-03-17T04:42:24;4.40;;;1.80;;
56427;SDS011;42331;53.578;9.760;2023-03-17T04:44:55;5.07;;;1.85;;
56427;SDS011;42331;53.578;9.760;2023-03-17T04:47:26;5.45;;;2.03;;
56427;SDS011;42331;53.578;9.760;2023-03-17T04:49:57;3.13;;;1.42;;
56427;SDS011;42331;53.578;9.760;2023-03-17T04:52:28;3.75;;;1.60;;
56427;SDS011;42331;53.578;9.760;2023-03-17T04:57:30;6.32;;;1.67;;
56427;SDS011;42331;53.578;9.760;2023-03-17T05:00:02;6.32;;;2.20;;
56427;SDS011;42331;53.578;9.760;2023-03-17T05:02:34;5.07;;;1.80;;
56427;SDS011;42331;53.578;9.760;2023-03-17T05:05:05;4.13;;;1.75;;
56427;SDS011;42331;53.578;9.760;2023-03-17T05:07:35;5.60;;;1.90;;
56427;SDS011;42331;53.578;9.760;2023-03-17T05:10:06;3.67;;;1.80;;
56427;SDS011;42331;53.578;9.760;2023-03-17T05:12:38;3.88;;;1.92;;
56427;SDS011;42331;53.578;9.760;2023-03-17T05:15:09;4.15;;;1.52;;
56427;SDS011;42331;53.578;9.760;2023-03-17T05:17:40;5.35;;;2.15;;
56427;SDS011;42331;53.578;9.760;2023-03-17T05:20:11;8.20;;;2.25;;
56427;SDS011;42331;53.578;9.760;2023-03-17T05:22:42;4.40;;;2.03;;
56427;SDS011;42331;53.578;9.760;2023-03-17T05:25:13;4.15;;;1.52;;
56427;SDS011;42331;53.578;9.760;2023-03-17T05:27:43;4.70;;;2.25;;
56427;SDS011;42331;53.578;9.760;2023-03-17T05:30:14;4.75;;;2.10;;
56427;SDS011;42331;53.578;9.760;2023-03-17T05:32:45;4.68;;;2.10;;
56427;SDS011;42331;53.578;9.760;2023-03-17T05:35:17;3.53;;;1.90;;
56427;SDS011;42331;53.578;9.760;2023-03-17T05:37:48;6.80;;;1.92;;
56427;SDS011;42331;53.578;9.760;2023-03-17T05:40:18;4.13;;;2.03;;
56427;SDS011;42331;53.578;9.760;2023-03-17T05:42:49;4.22;;;2.17;;
56427;SDS011;42331;53.578;9.760;2023-03-17T05:45:20;4.68;;;1.58;;
56427;SDS011;42331;53.578;9.760;2023-03-17T05:47:51;5.63;;;2.03;;
56427;SDS011;42331;53.578;9.760;2023-03-17T05:50:22;6.68;;;2.20;;
56427;SDS011;42331;53.578;9.760;2023-03-17T05:52:53;5.93;;;2.20;;
56427;SDS011;42331;53.578;9.760;2023-03-17T05:55:24;5.63;;;2.15;;
56427;SDS011;42331;53.578;9.760;2023-03-17T05:57:55;7.10;;;2.33;;
56427;SDS011;42331;53.578;9.760;2023-03-17T06:00:25;4.32;;;2.15;;
56427;SDS011;42331;53.578;9.760;2023-03-17T06:05:28;6.03;;;2.08;;
56427;SDS011;42331;53.578;9.760;2023-03-17T06:07:59;3.92;;;2.00;;
56427;SDS011;42331;53.578;9.760;2023-03-17T06:10:31;4.27;;;2.07;;
56427;SDS011;42331;53.578;9.760;2023-03-17T06:13:02;5.85;;;2.30;;
56427;SDS011;42331;53.578;9.760;2023-03-17T06:15:33;5.28;;;1.75;;
56427;SDS011;42331;53.578;9.760;2023-03-17T06:18:05;4.55;;;2.60;;
56427;SDS011;42331;53.578;9.760;2023-03-17T06:20:36;5.60;;;2.00;;
56427;SDS011;42331;53.578;9.760;2023-03-17T06:23:07;4.35;;;2.17;;
56427;SDS011;42331;53.578;9.760;2023-03-17T06:25:38;6.22;;;2.63;;
56427;SDS011;42331;53.578;9.760;2023-03-17T06:28:08;4.65;;;2.35;;
56427;SDS011;42331;53.578;9.760;2023-03-17T06:30:39;5.82;;;2.10;;
56427;SDS011;42331;53.578;9.760;2023-03-17T06:33:10;4.53;;;2.15;;
56427;SDS011;42331;53.578;9.760;2023-03-17T06:35:42;5.22;;;2.50;;
56427;SDS011;42331;53.578;9.760;2023-03-17T06:38:12;4.93;;;2.10;;
56427;SDS011;42331;53.578;9.760;2023-03-17T06:40:43;5.55;;;2.10;;
56427;SDS011;42331;53.578;9.760;2023-03-17T06:43:14;5.45;;;2.38;;
56427;SDS011;42331;53.578;9.760;2023-03-17T06:48:17;5.55;;;2.45;;
56427;SDS011;42331;53.578;9.760;2023-03-17T06:50:48;6.00;;;2.50;;
56427;SDS011;42331;53.578;9.760;2023-03-17T06:53:19;5.83;;;2.30;;
56427;SDS011;42331;53.578;9.760;2023-03-17T06:55:50;5.90;;;2.60;;
56427;SDS011;42331;53.578;9.760;2023-03-17T06:58:21;5.35;;;2.45;;
56427;SDS011;42331;53.578;9.760;2023-03-17T07:00:52;4.30;;;2.40;;
56427;SDS011;42331;53.578;9.760;2023-03-17T07:03:23;9.50;;;2.70;;
56427;SDS011;42331;53.578;9.760;2023-03-17T07:05:54;5.57;;;2.28;;
56427;SDS011;42331;53.578;9.760;2023-03-17T07:08:25;5.55;;;2.45;;
56427;SDS011;42331;53.578;9.760;2023-03-17T07:10:59;6.13;;;2.50;;
56427;SDS011;42331;53.578;9.760;2023-03-17T07:13:30;5.25;;;2.38;;
56427;SDS011;42331;53.578;9.760;2023-03-17T07:16:04;4.63;;;2.45;;
56427;SDS011;42331;53.578;9.760;2023-03-17T07:18:36;5.18;;;2.10;;
56427;SDS011;42331;53.578;9.760;2023-03-17T07:21:06;7.63;;;2.47;;
56427;SDS011;42331;53.578;9.760;2023-03-17T07:23:37;4.47;;;2.33;;
56427;SDS011;42331;53.578;9.760;2023-03-17T07:26:08;4.88;;;2.42;;
56427;SDS011;42331;53.578;9.760;2023-03-17T07:28:38;5.15;;;2.35;;
56427;SDS011;42331;53.578;9.760;2023-03-17T07:31:09;3.92;;;1.92;;
56427;SDS011;42331;53.578;9.760;2023-03-17T07:33:43;4.95;;;2.47;;
56427;SDS011;42331;53.578;9.760;2023-03-17T07:36:13;5.80;;;2.80;;
56427;SDS011;42331;53.578;9.760;2023-03-17T07:38:44;5.60;;;2.57;;
56427;SDS011;42331;53.578;9.760;2023-03-17T07:41:15;4.53;;;2.42;;
56427;SDS011;42331;53.578;9.760;2023-03-17T07:43:47;5.03;;;2.40;;
56427;SDS011;42331;53.578;9.760;2023-03-17T07:46:17;4.90;;;2.35;;
56427;SDS011;42331;53.578;9.760;2023-03-17T07:48:48;4.07;;;2.35;;
56427;SDS011;42331;53.578;9.760;2023-03-17T07:51:20;6.35;;;2.55;;
56427;SDS011;42331;53.578;9.760;2023-03-17T07:53:52;6.82;;;2.80;;
56427;SDS011;42331;53.578;9.760;2023-03-17T07:56:32;5.10;;;2.58;;
56427;SDS011;42331;53.578;9.760;2023-03-17T07:59:03;5.35;;;2.58;;
56427;SDS011;42331;53.578;9.760;2023-03-17T08:01:35;4.00;;;2.00;;
56427;SDS011;42331;53.578;9.760;2023-03-17T08:04:07;5.30;;;2.50;;
56427;SDS011;42331;53.578;9.760;2023-03-17T08:06:40;4.90;;;2.55;;
56427;SDS011;42331;53.578;9.760;2023-03-17T08:09:11;5.00;;;2.80;;
56427;SDS011;42331;53.578;9.760;2023-03-17T08:11:42;6.35;;;3.20;;
56427;SDS011;42331;53.578;9.760;2023-03-17T08:14:12;5.50;;;2.13;;
56427;SDS011;42331;53.578;9.760;2023-03-17T08:16:43;6.03;;;2.30;;
56427;SDS011;42331;53.578;9.760;2023-03-17T08:19:14;9.77;;;3.00;;
56427;SDS011;42331;53.578;9.760;2023-03-17T08:21:45;5.13;;;2.35;;
56427;SDS011;42331;53.578;9.760;2023-03-17T08:24:16;4.15;;;2.03;;
56427;SDS011;42331;53.578;9.760;2023-03-17T08:26:47;5.35;;;2.08;;
56427;SDS011;42331;53.578;9.760;2023-03-17T08:29:18;4.68;;;2.10;;
56427;SDS011;42331;53.578;9.760;2023-03-17T08:31:49;5.32;;;2.25;;
56427;SDS011;42331;53.578;9.760;2023-03-17T08:34:19;7.10;;;2.45;;
56427;SDS011;42331;53.578;9.760;2023-03-17T08:36:50;6.28;;;2.55;;
56427;SDS011;42331;53.578;9.760;2023-03-17T08:39:21;4.80;;;2.13;;
56427;SDS011;42331;53.578;9.760;2023-03-17T08:41:53;6.47;;;2.60;;
56427;SDS011;42331;53.578;9.760;2023-03-17T08:44:24;4.70;;;2.05;;
56427;SDS011;42331;53.578;9.760;2023-03-17T08:46:55;6.93;;;2.17;;
56427;SDS011;42331;53.578;9.760;2023-03-17T08:49:26;6.50;;;2.50;;
56427;SDS011;42331;53.578;9.760;2023-03-17T08:51:57;4.50;;;2.15;;
56427;SDS011;42331;53.578;9.760;2023-03-17T08:54:28;5.00;;;2.03;;
56427;SDS011;42331;53.578;9.760;2023-03-17T08:56:59;4.45;;;2.10;;
56427;SDS011;42331;53.578;9.760;2023-03-17T08:59:30;3.65;;;1.80;;
56427;SDS011;42331;53.578;9.760;2023-03-17T09:02:02;6.95;;;1.92;;
56427;SDS011;42331;53.578;9.760;2023-03-17T09:04:33;5.55;;;2.17;;
56427;SDS011;42331;53.578;9.760;2023-03-17T09:07:05;5.95;;;2.05;;
56427;SDS011;42331;53.578;9.760;2023-03-17T09:09:36;4.43;;;2.13;;
56427;SDS011;42331;53.578;9.760;2023-03-17T09:12:08;3.23;;;1.93;;
56427;SDS011;42331;53.578;9.760;2023-03-17T09:14:40;4.85;;;2.10;;
56427;SDS011;42331;53.578;9.760;2023-03-17T09:17:11;4.25;;;1.70;;
56427;SDS011;42331;53.578;9.760;2023-03-17T09:19:43;3.30;;;1.90;;
56427;SDS011;42331;53.578;9.760;2023-03-17T09:22:15;5.07;;;1.75;;
56427;SDS011;42331;53.578;9.760;2023-03-17T09:24:47;6.78;;;1.80;;
56427;SDS011;42331;53.578;9.760;2023-03-17T09:27:18;4.43;;;2.15;;
56427;SDS011;42331;53.578;9.760;2023-03-17T09:29:49;3.85;;;2.03;;
56427;SDS011;42331;53.578;9.760;2023-03-17T09:32:20;3.47;;;2.00;;
56427;SDS011;42331;53.578;9.760;2023-03-17T09:34:51;3.58;;;1.95;;
56427;SDS011;42331;53.578;9.760;2023-03-17T09:37:22;4.55;;;1.80;;
56427;SDS011;42331;53.578;9.760;2023-03-17T09:39:53;6.88;;;2.45;;
56427;SDS011;42331;53.578;9.760;2023-03-17T09:42:32;4.97;;;2.13;;
56427;SDS011;42331;53.578;9.760;2023-03-17T09:45:18;4.63;;;2.10;;
56427;SDS011;42331;53.578;9.760;2023-03-17T09:53:29;3.72;;;1.92;;
56427;SDS011;42331;53.578;9.760;2023-03-17T09:56:10;5.10;;;1.98;;
56427;SDS011;42331;53.578;9.760;2023-03-17T09:58:45;4.15;;;2.17;;
56427;SDS011;42331;53.578;9.760;2023-03-17T10:01:23;3.08;;;1.63;;
56427;SDS011;42331;53.578;9.760;2023-03-17T10:03:54;3.97;;;2.00;;
56427;SDS011;42331;53.578;9.760;2023-03-17T10:09:25;5.72;;;2.03;;
56427;SDS011;42331;53.578;9.760;2023-03-17T10:12:26;6.45;;;2.42;;
56427;SDS011;42331;53.578;9.760;2023-03-17T10:20:49;5.22;;;1.85;;
56427;SDS011;42331;53.578;9.760;2023-03-17T10:23:42;4.32;;;1.80;;
56427;SDS011;42331;53.578;9.760;2023-03-17T10:28:53;3.78;;;1.70;;
56427;SDS011;42331;53.578;9.760;2023-03-17T10:31:29;4.20;;;2.00;;
56427;SDS011;42331;53.578;9.760;2023-03-17T10:37:00;5.30;;;2.05;;
56427;SDS011;42331;53.578;9.760;2023-03-17T10:39:55;6.55;;;2.20;;
56427;SDS011;42331;53.578;9.760;2023-03-17T10:42:30;6.82;;;2.22;;
56427;SDS011;42331;53.578;9.760;2023-03-17T10:45:06;4.13;;;2.20;;
56427;SDS011;42331;53.578;9.760;2023-03-17T10:47:59;4.53;;;2.70;;
56427;SDS011;42331;53.578;9.760;2023-03-17T10:50:32;4.95;;;2.35;;
56427;SDS011;42331;53.578;9.760;2023-03-17T10:53:07;3.97;;;1.98;;
56427;SDS011;42331;53.578;9.760;2023-03-17T10:56:07;4.15;;;2.17;;
56427;SDS011;42331;53.578;9.760;2023-03-17T10:58:50;3.58;;;1.90;;
56427;SDS011;42331;53.578;9.760;2023-03-17T11:01:33;4.05;;;2.10;;
56427;SDS011;42331;53.578;9.760;2023-03-17T11:04:27;5.00;;;1.90;;
56427;SDS011;42331;53.578;9.760;2023-03-17T11:07:05;4.80;;;2.08;;
56427;SDS011;42331;53.578;9.760;2023-03-17T11:09:50;4.82;;;2.03;;
56427;SDS011;42331;53.578;9.760;2023-03-17T11:12:25;5.18;;;2.28;;
56427;SDS011;42331;53.578;9.760;2023-03-17T11:14:58;6.10;;;2.45;;
56427;SDS011;42331;53.578;9.760;2023-03-17T11:17:42;5.43;;;2.05;;
56427;SDS011;42331;53.578;9.760;2023-03-17T11:20:46;4.85;;;1.77;;
56427;SDS011;42331;53.578;9.760;2023-03-17T11:23:51;4.32;;;2.05;;
56427;SDS011;42331;53.578;9.760;2023-03-17T11:29:21;5.35;;;1.95;;
56427;SDS011;42331;53.578;9.760;2023-03-17T11:31:55;3.90;;;2.22;;
56427;SDS011;42331;53.578;9.760;2023-03-17T11:37:39;4.55;;;2.08;;
56427;SDS011;42331;53.578;9.760;2023-03-17T11:49:03;4.85;;;1.90;;
56427;SDS011;42331;53.578;9.760;2023-03-17T11:57:52;4.07;;;2.20;;
56427;SDS011;42331;53.578;9.760;2023-03-17T12:00:40;4.40;;;2.05;;
56427;SDS011;42331;53.578;9.760;2023-03-17T12:03:24;7.40;;;2.28;;
56427;SDS011;42331;53.578;9.760;2023-03-17T12:06:02;7.72;;;2.40;;
56427;SDS011;42331;53.578;9.760;2023-03-17T12:08:41;4.28;;;2.15;;
56427;SDS011;42331;53.578;9.760;2023-03-17T12:11:26;6.28;;;1.98;;
56427;SDS011;42331;53.578;9.760;2023-03-17T12:14:22;5.60;;;2.45;;
56427;SDS011;42331;53.578;9.760;2023-03-17T12:16:59;4.15;;;1.95;;
56427;SDS011;42331;53.578;9.760;2023-03-17T12:22:38;6.47;;;2.40;;
56427;SDS011;42331;53.578;9.760;2023-03-17T12:25:29;4.28;;;2.03;;
56427;SDS011;42331;53.578;9.760;2023-03-17T12:28:09;5.70;;;2.20;;
56427;SDS011;42331;53.578;9.760;2023-03-17T12:30:48;4.07;;;2.35;;
56427;SDS011;42331;53.578;9.760;2023-03-17T12:33:29;4.72;;;2.20;;
56427;SDS011;42331;53.578;9.760;2023-03-17T12:36:05;4.65;;;2.17;;
56427;SDS011;42331;53.578;9.760;2023-03-17T12:38:39;3.70;;;1.98;;
56427;SDS011;42331;53.578;9.760;2023-03-17T12:44:09;5.30;;;2.13;;
56427;SDS011;42331;53.578;9.760;2023-03-17T12:55:37;4.05;;;2.08;;
56427;SDS011;42331;53.578;9.760;2023-03-17T12:58:19;4.32;;;2.38;;
56427;SDS011;42331;53.578;9.760;2023-03-17T13:01:14;4.80;;;2.20;;
56427;SDS011;42331;53.578;9.760;2023-03-17T13:12:01;4.30;;;2.10;;
56427;SDS011;42331;53.578;9.760;2023-03-17T13:14:39;4.75;;;2.05;;
56427;SDS011;42331;53.578;9.760;2023-03-17T13:19:54;4.30;;;2.47;;
56427;SDS011;42331;53.578;9.760;2023-03-17T13:30:43;5.38;;;2.15;;
56427;SDS011;42331;53.578;9.760;2023-03-17T13:33:19;5.32;;;2.05;;
56427;SDS011;42331;53.578;9.760;2023-03-17T13:50:11;3.92;;;2.08;;
56427;SDS011;42331;53.578;9.760;2023-03-17T13:52:45;4.57;;;2.38;;
56427;SDS011;42331;53.578;9.760;2023-03-17T13:55:31;3.83;;;2.22;;
56427;SDS011;42331;53.578;9.760;2023-03-17T14:00:43;4.60;;;2.35;;
56427;SDS011;42331;53.578;9.760;2023-03-17T14:03:30;6.57;;;2.60;;
56427;SDS011;42331;53.578;9.760;2023-03-17T14:06:04;5.30;;;2.83;;
56427;SDS011;42331;53.578;9.760;2023-03-17T14:08:41;4.28;;;2.92;;
56427;SDS011;42331;53.578;9.760;2023-03-17T14:11:32;6.85;;;2.55;;
56427;SDS011;42331;53.578;9.760;2023-03-17T14:17:19;5.63;;;2.72;;
56427;SDS011;42331;53.578;9.760;2023-03-17T14:20:01;7.43;;;2.92;;
56427;SDS011;42331;53.578;9.760;2023-03-17T14:22:39;4.80;;;2.55;;
56427;SDS011;42331;53.578;9.760;2023-03-17T14:25:19;7.50;;;2.92;;
56427;SDS011;42331;53.578;9.760;2023-03-17T14:27:53;6.43;;;2.80;;
56427;SDS011;42331;53.578;9.760;2023-03-17T14:30:27;5.80;;;2.25;;
56427;SDS011;42331;53.578;9.760;2023-03-17T14:33:10;4.55;;;2.50;;
56427;SDS011;42331;53.578;9.760;2023-03-17T14:35:45;4.75;;;2.65;;
56427;SDS011;42331;53.578;9.760;2023-03-17T14:38:24;5.20;;;2.67;;
56427;SDS011;42331;53.578;9.760;2023-03-17T14:41:14;6.65;;;2.60;;
56427;SDS011;42331;53.578;9.760;2023-03-17T14:43:58;5.47;;;2.72;;
56427;SDS011;42331;53.578;9.760;2023-03-17T14:46:30;6.03;;;2.95;;
56427;SDS011;42331;53.578;9.760;2023-03-17T14:49:11;4.45;;;2.47;;
56427;SDS011;42331;53.578;9.760;2023-03-17T14:51:48;4.43;;;2.20;;
56427;SDS011;42331;53.578;9.760;2023-03-17T14:54:26;6.07;;;2.25;;
56427;SDS011;42331;53.578;9.760;2023-03-17T14:57:06;4.60;;;2.17;;
56427;SDS011;42331;53.578;9.760;2023-03-17T14:59:42;4.18;;;2.22;;
56427;SDS011;42331;53.578;9.760;2023-03-17T15:02:34;5.03;;;2.22;;
56427;SDS011;42331;53.578;9.760;2023-03-17T15:11:02;4.30;;;2.15;;
56427;SDS011;42331;53.578;9.760;2023-03-17T15:13:35;4.80;;;2.00;;
56427;SDS011;42331;53.578;9.760;2023-03-17T15:16:21;3.60;;;1.80;;
56427;SDS011;42331;53.578;9.760;2023-03-17T15:19:16;4.63;;;1.88;;
56427;SDS011;42331;53.578;9.760;2023-03-17T15:21:53;4.60;;;1.90;;
56427;SDS011;42331;53.578;9.760;2023-03-17T15:24:37;4.88;;;2.10;;
56427;SDS011;42331;53.578;9.760;2023-03-17T15:27:16;4.05;;;1.98;;
56427;SDS011;42331;53.578;9.760;2023-03-17T15:29:47;3.53;;;1.80;;
56427;SDS011;42331;53.578;9.760;2023-03-17T15:32:19;4.85;;;1.75;;
56427;SDS011;42331;53.578;9.760;2023-03-17T15:34:53;3.10;;;1.60;;
56427;SDS011;42331;53.578;9.760;2023-03-17T15:37:27;6.00;;;2.00;;
56427;SDS011;42331;53.578;9.760;2023-03-17T15:39:59;4.55;;;1.85;;
56427;SDS011;42331;53.578;9.760;2023-03-17T15:42:33;3.95;;;1.90;;
56427;SDS011;42331;53.578;9.760;2023-03-17T15:45:05;5.88;;;1.90;;
56427;SDS011;42331;53.578;9.760;2023-03-17T15:47:36;3.50;;;1.70;;
56427;SDS011;42331;53.578;9.760;2023-03-17T15:52:48;5.15;;;1.77;;
56427;SDS011;42331;53.578;9.760;2023-03-17T15:55:23;4.22;;;2.20;;
56427;SDS011;42331;53.578;9.760;2023-03-17T15:57:58;5.65;;;1.80;;
56427;SDS011;42331;53.578;9.760;2023-03-17T16:00:29;4.93;;;1.75;;
56427;SDS011;42331;53.578;9.760;2023-03-17T16:03:14;3.60;;;1.73;;
56427;SDS011;42331;53.578;9.760;2023-03-17T16:05:46;12.57;;;2.20;;
56427;SDS011;42331;53.578;9.760;2023-03-17T16:08:17;4.20;;;1.83;;
56427;SDS011;42331;53.578;9.760;2023-03-17T16:10:48;4.47;;;2.07;;
56427;SDS011;42331;53.578;9.760;2023-03-17T16:13:18;4.63;;;1.70;;
56427;SDS011;42331;53.578;9.760;2023-03-17T16:15:52;3.85;;;1.70;;
56427;SDS011;42331;53.578;9.760;2023-03-17T16:18:32;4.30;;;1.50;;
56427;SDS011;42331;53.578;9.760;2023-03-17T16:21:05;3.35;;;1.50;;
56427;SDS011;42331;53.578;9.760;2023-03-17T16:23:36;4.18;;;1.50;;
56427;SDS011;42331;53.578;9.760;2023-03-17T16:26:07;3.17;;;1.40;;
56427;SDS011;42331;53.578;9.760;2023-03-17T16:28:38;3.05;;;1.40;;
56427;SDS011;42331;53.578;9.760;2023-03-17T16:31:23;4.18;;;1.23;;
56427;SDS011;42331;53.578;9.760;2023-03-17T16:33:55;3.90;;;1.33;;
56427;SDS011;42331;53.578;9.760;2023-03-17T16:36:26;2.35;;;1.30;;
56427;SDS011;42331;53.578;9.760;2023-03-17T16:38:57;2.50;;;1.33;;
56427;SDS011;42331;53.578;9.760;2023-03-17T16:41:30;4.63;;;1.60;;
56427;SDS011;42331;53.578;9.760;2023-03-17T16:44:04;3.85;;;1.48;;
56427;SDS011;42331;53.578;9.760;2023-03-17T16:46:37;2.63;;;1.40;;
56427;SDS011;42331;53.578;9.760;2023-03-17T16:49:09;4.60;;;1.55;;
56427;SDS011;42331;53.578;9.760;2023-03-17T16:51:47;2.75;;;1.60;;
56427;SDS011;42331;53.578;9.760;2023-03-17T16:54:18;5.28;;;1.63;;
56427;SDS011;42331;53.578;9.760;2023-03-17T16:56:48;4.10;;;1.40;;
56427;SDS011;42331;53.578;9.760;2023-03-17T16:59:20;3.13;;;1.45;;
56427;SDS011;42331;53.578;9.760;2023-03-17T17:01:50;7.70;;;1.60;;
56427;SDS011;42331;53.578;9.760;2023-03-17T17:04:23;5.07;;;1.50;;
56427;SDS011;42331;53.578;9.760;2023-03-17T17:06:54;2.88;;;1.52;;
56427;SDS011;42331;53.578;9.760;2023-03-17T17:09:25;6.13;;;2.43;;
56427;SDS011;42331;53.578;9.760;2023-03-17T17:11:56;7.05;;;3.60;;
56427;SDS011;42331;53.578;9.760;2023-03-17T17:14:27;5.72;;;3.38;;
56427;SDS011;42331;53.578;9.760;2023-03-17T17:19:45;6.03;;;2.13;;
56427;SDS011;42331;53.578;9.760;2023-03-17T17:22:16;6.72;;;1.73;;
56427;SDS011;42331;53.578;9.760;2023-03-17T17:24:46;5.55;;;1.73;;
56427;SDS011;42331;53.578;9.760;2023-03-17T17:27:17;3.75;;;1.65;;
56427;SDS011;42331;53.578;9.760;2023-03-17T17:29:48;3.80;;;2.13;;
56427;SDS011;42331;53.578;9.760;2023-03-17T17:32:19;3.22;;;1.80;;